sensor_id;sensor_type;location;lat;lon;timestamp;temperature;humidity
30520;DHT22;17300;50.374;8.006;2022-07-29T00:01:15;23.00;42.40
30520;DHT22;17300;50.374;8.006;2022-07-29T00:03:42;23.00;42.40
30520;DHT22;17300;50.374;8.006;2022-07-29T00:06:09;23.00;42.50
30520;DHT22;17300;50.374;8.006;2022-07-29T00:08:37;23.00;42.60
30520;DHT22;17300;50.374;8.006;2022-07-29T00:11:04;23.00;42.70
30520;DHT22;17300;50.374;8.006;2022-07-29T00:13:31;23.00;42.70
30520;DHT22;17300;50.374;8.006;2022-07-29T00:15:58;23.00;42.70
30520;DHT22;17300;50.374;8.006;2022-07-29T00:18:25;23.00;42.80
30520;DHT22;17300;50.374;8.006;2022-07-29T00:20:51;23.00;42.90
30520;DHT22;17300;50.374;8.006;2022-07-29T00:23:18;23.00;43.00
30520;DHT22;17300;50.374;8.006;2022-07-29T00:25:46;23.00;43.00
30520;DHT22;17300;50.374;8.006;2022-07-29T00:28:13;23.00;43.20
30520;DHT22;17300;50.374;8.006;2022-07-29T00:30:40;23.00;43.10
30520;DHT22;17300;50.374;8.006;2022-07-29T00:33:08;23.00;43.20
30520;DHT22;17300;50.374;8.006;2022-07-29T00:35:35;23.00;43.10
30520;DHT22;17300;50.374;8.006;2022-07-29T00:38:10;23.00;43.00
30520;DHT22;17300;50.374;8.006;2022-07-29T00:40:37;23.00;43.00
30520;DHT22;17300;50.374;8.006;2022-07-29T00:43:05;23.00;43.00
30520;DHT22;17300;50.374;8.006;2022-07-29T00:45:32;23.00;43.20
30520;DHT22;17300;50.374;8.006;2022-07-29T00:47:59;23.10;43.30
30520;DHT22;17300;50.374;8.006;2022-07-29T00:50:26;23.10;44.10
30520;DHT22;17300;50.374;8.006;2022-07-29T00:52:53;23.10;43.70
30520;DHT22;17300;50.374;8.006;2022-07-29T00:55:20;23.10;44.10
30520;DHT22;17300;50.374;8.006;2022-07-29T00:57:47;23.10;44.30
30520;DHT22;17300;50.374;8.006;2022-07-29T01:00:17;23.10;44.00
30520;DHT22;17300;50.374;8.006;2022-07-29T01:02:45;23.10;44.50
30520;DHT22;17300;50.374;8.006;2022-07-29T01:05:15;23.20;44.60
30520;DHT22;17300;50.374;8.006;2022-07-29T01:07:42;23.10;44.50
30520;DHT22;17300;50.374;8.006;2022-07-29T01:10:12;23.10;44.80
30520;DHT22;17300;50.374;8.006;2022-07-29T01:12:40;23.10;45.10
30520;DHT22;17300;50.374;8.006;2022-07-29T01:15:09;23.00;45.10
30520;DHT22;17300;50.374;8.006;2022-07-29T01:17:42;22.90;45.10
30520;DHT22;17300;50.374;8.006;2022-07-29T01:20:14;22.90;45.30
30520;DHT22;17300;50.374;8.006;2022-07-29T01:23:03;22.80;45.30
30520;DHT22;17300;50.374;8.006;2022-07-29T01:26:04;22.80;45.90
30520;DHT22;17300;50.374;8.006;2022-07-29T01:28:56;22.70;45.80
30520;DHT22;17300;50.374;8.006;2022-07-29T01:31:29;22.60;45.50
30520;DHT22;17300;50.374;8.006;2022-07-29T01:34:07;22.60;45.80
30520;DHT22;17300;50.374;8.006;2022-07-29T01:36:40;22.50;45.60
30520;DHT22;17300;50.374;8.006;2022-07-29T01:39:12;22.40;45.70
30520;DHT22;17300;50.374;8.006;2022-07-29T01:41:48;22.40;45.80
30520;DHT22;17300;50.374;8.006;2022-07-29T01:44:22;22.30;46.40
30520;DHT22;17300;50.374;8.006;2022-07-29T01:46:54;22.20;46.20
30520;DHT22;17300;50.374;8.006;2022-07-29T01:49:27;22.10;46.10
30520;DHT22;17300;50.374;8.006;2022-07-29T01:51:58;22.00;46.30
30520;DHT22;17300;50.374;8.006;2022-07-29T01:54:29;21.90;46.50
30520;DHT22;17300;50.374;8.006;2022-07-29T01:56:58;21.80;46.60
30520;DHT22;17300;50.374;8.006;2022-07-29T01:59:28;21.80;46.70
30520;DHT22;17300;50.374;8.006;2022-07-29T02:01:57;21.70;47.00
30520;DHT22;17300;50.374;8.006;2022-07-29T02:04:25;21.60;47.00
30520;DHT22;17300;50.374;8.006;2022-07-29T02:06:54;21.60;47.10
30520;DHT22;17300;50.374;8.006;2022-07-29T02:09:24;21.50;47.30
30520;DHT22;17300;50.374;8.006;2022-07-29T02:11:53;21.40;47.30
30520;DHT22;17300;50.374;8.006;2022-07-29T02:14:22;21.30;47.40
30520;DHT22;17300;50.374;8.006;2022-07-29T02:16:53;21.30;47.80
30520;DHT22;17300;50.374;8.006;2022-07-29T02:19:22;21.20;48.20
30520;DHT22;17300;50.374;8.006;2022-07-29T02:21:51;21.10;48.00
30520;DHT22;17300;50.374;8.006;2022-07-29T02:24:21;21.10;48.40
30520;DHT22;17300;50.374;8.006;2022-07-29T02:26:49;21.00;48.40
30520;DHT22;17300;50.374;8.006;2022-07-29T02:29:19;20.90;48.40
30520;DHT22;17300;50.374;8.006;2022-07-29T02:31:48;20.90;48.80
30520;DHT22;17300;50.374;8.006;2022-07-29T02:34:19;20.80;48.90
30520;DHT22;17300;50.374;8.006;2022-07-29T02:36:47;20.80;49.20
30520;DHT22;17300;50.374;8.006;2022-07-29T02:39:15;20.70;49.10
30520;DHT22;17300;50.374;8.006;2022-07-29T02:41:44;20.70;49.30
30520;DHT22;17300;50.374;8.006;2022-07-29T02:44:12;20.60;49.50
30520;DHT22;17300;50.374;8.006;2022-07-29T02:46:45;20.60;49.50
30520;DHT22;17300;50.374;8.006;2022-07-29T02:49:18;20.50;49.90
30520;DHT22;17300;50.374;8.006;2022-07-29T02:51:46;20.50;50.00
30520;DHT22;17300;50.374;8.006;2022-07-29T02:54:22;20.50;49.80
30520;DHT22;17300;50.374;8.006;2022-07-29T02:56:51;20.40;50.30
30520;DHT22;17300;50.374;8.006;2022-07-29T02:59:23;20.40;50.10
30520;DHT22;17300;50.374;8.006;2022-07-29T03:01:52;20.40;50.30
30520;DHT22;17300;50.374;8.006;2022-07-29T03:04:22;20.30;50.30
30520;DHT22;17300;50.374;8.006;2022-07-29T03:06:51;20.30;50.50
30520;DHT22;17300;50.374;8.006;2022-07-29T03:09:19;20.20;50.30
30520;DHT22;17300;50.374;8.006;2022-07-29T03:11:46;20.20;50.50
30520;DHT22;17300;50.374;8.006;2022-07-29T03:14:13;20.20;50.60
30520;DHT22;17300;50.374;8.006;2022-07-29T03:16:41;20.10;50.60
30520;DHT22;17300;50.374;8.006;2022-07-29T03:19:08;20.10;50.70
30520;DHT22;17300;50.374;8.006;2022-07-29T03:21:36;20.10;50.80
30520;DHT22;17300;50.374;8.006;2022-07-29T03:24:03;20.00;51.00
30520;DHT22;17300;50.374;8.006;2022-07-29T03:26:30;20.00;50.90
30520;DHT22;17300;50.374;8.006;2022-07-29T03:28:57;19.90;51.00
30520;DHT22;17300;50.374;8.006;2022-07-29T03:31:23;19.90;51.00
30520;DHT22;17300;50.374;8.006;2022-07-29T03:33:50;19.90;51.00
30520;DHT22;17300;50.374;8.006;2022-07-29T03:36:17;19.80;51.00
30520;DHT22;17300;50.374;8.006;2022-07-29T03:38:45;19.70;50.90
30520;DHT22;17300;50.374;8.006;2022-07-29T03:41:14;19.70;51.30
30520;DHT22;17300;50.374;8.006;2022-07-29T03:43:43;19.70;51.30
30520;DHT22;17300;50.374;8.006;2022-07-29T03:46:11;19.60;51.20
30520;DHT22;17300;50.374;8.006;2022-07-29T03:48:42;19.60;51.30
30520;DHT22;17300;50.374;8.006;2022-07-29T03:51:12;19.60;51.60
30520;DHT22;17300;50.374;8.006;2022-07-29T03:53:40;19.50;51.40
30520;DHT22;17300;50.374;8.006;2022-07-29T03:56:10;19.50;51.60
30520;DHT22;17300;50.374;8.006;2022-07-29T03:58:38;19.50;52.10
30520;DHT22;17300;50.374;8.006;2022-07-29T04:01:05;19.40;51.80
30520;DHT22;17300;50.374;8.006;2022-07-29T04:03:32;19.50;52.00
30520;DHT22;17300;50.374;8.006;2022-07-29T04:06:02;19.40;52.10
30520;DHT22;17300;50.374;8.006;2022-07-29T04:08:31;19.40;52.30
30520;DHT22;17300;50.374;8.006;2022-07-29T04:10:58;19.40;52.20
30520;DHT22;17300;50.374;8.006;2022-07-29T04:13:26;19.40;52.30
30520;DHT22;17300;50.374;8.006;2022-07-29T04:15:53;19.30;52.40
30520;DHT22;17300;50.374;8.006;2022-07-29T04:18:19;19.40;52.30
30520;DHT22;17300;50.374;8.006;2022-07-29T04:20:46;19.30;52.40
30520;DHT22;17300;50.374;8.006;2022-07-29T04:23:13;19.30;52.50
30520;DHT22;17300;50.374;8.006;2022-07-29T04:25:40;19.30;52.60
30520;DHT22;17300;50.374;8.006;2022-07-29T04:28:07;19.30;52.70
30520;DHT22;17300;50.374;8.006;2022-07-29T04:30:37;19.30;52.80
30520;DHT22;17300;50.374;8.006;2022-07-29T04:33:05;19.30;53.00
30520;DHT22;17300;50.374;8.006;2022-07-29T04:35:35;19.30;53.00
30520;DHT22;17300;50.374;8.006;2022-07-29T04:38:02;19.30;53.10
30520;DHT22;17300;50.374;8.006;2022-07-29T04:40:29;19.30;53.10
30520;DHT22;17300;50.374;8.006;2022-07-29T04:42:58;19.30;53.10
30520;DHT22;17300;50.374;8.006;2022-07-29T04:45:25;19.40;53.10
30520;DHT22;17300;50.374;8.006;2022-07-29T04:47:53;19.30;53.00
30520;DHT22;17300;50.374;8.006;2022-07-29T04:50:20;19.40;53.20
30520;DHT22;17300;50.374;8.006;2022-07-29T04:52:47;19.40;53.10
30520;DHT22;17300;50.374;8.006;2022-07-29T04:55:14;19.40;53.20
30520;DHT22;17300;50.374;8.006;2022-07-29T04:57:40;19.40;53.30
30520;DHT22;17300;50.374;8.006;2022-07-29T05:00:08;19.50;53.40
30520;DHT22;17300;50.374;8.006;2022-07-29T05:02:35;19.50;53.50
30520;DHT22;17300;50.374;8.006;2022-07-29T05:05:04;19.50;53.40
30520;DHT22;17300;50.374;8.006;2022-07-29T05:07:31;19.50;53.50
30520;DHT22;17300;50.374;8.006;2022-07-29T05:09:58;19.50;53.50
30520;DHT22;17300;50.374;8.006;2022-07-29T05:12:25;19.50;53.50
30520;DHT22;17300;50.374;8.006;2022-07-29T05:14:53;19.50;53.50
30520;DHT22;17300;50.374;8.006;2022-07-29T05:17:20;19.60;53.60
30520;DHT22;17300;50.374;8.006;2022-07-29T05:19:46;19.60;53.60
30520;DHT22;17300;50.374;8.006;2022-07-29T05:22:15;19.70;53.70
30520;DHT22;17300;50.374;8.006;2022-07-29T05:24:41;19.70;53.70
30520;DHT22;17300;50.374;8.006;2022-07-29T05:27:08;19.80;53.80
30520;DHT22;17300;50.374;8.006;2022-07-29T05:29:35;19.90;53.90
30520;DHT22;17300;50.374;8.006;2022-07-29T05:32:02;20.00;54.00
30520;DHT22;17300;50.374;8.006;2022-07-29T05:34:29;20.00;54.00
30520;DHT22;17300;50.374;8.006;2022-07-29T05:36:56;20.10;54.10
30520;DHT22;17300;50.374;8.006;2022-07-29T05:39:24;20.20;54.20
30520;DHT22;17300;50.374;8.006;2022-07-29T05:41:51;20.40;54.40
30520;DHT22;17300;50.374;8.006;2022-07-29T05:44:18;20.50;54.40
30520;DHT22;17300;50.374;8.006;2022-07-29T05:46:44;20.60;54.40
30520;DHT22;17300;50.374;8.006;2022-07-29T05:49:11;20.80;54.60
30520;DHT22;17300;50.374;8.006;2022-07-29T05:51:38;20.90;54.60
30520;DHT22;17300;50.374;8.006;2022-07-29T05:54:05;21.10;54.60
30520;DHT22;17300;50.374;8.006;2022-07-29T05:56:35;21.30;54.70
30520;DHT22;17300;50.374;8.006;2022-07-29T05:59:02;21.50;54.80
30520;DHT22;17300;50.374;8.006;2022-07-29T06:01:29;21.80;54.80
30520;DHT22;17300;50.374;8.006;2022-07-29T06:03:55;22.20;55.10
30520;DHT22;17300;50.374;8.006;2022-07-29T06:06:22;22.60;55.80
30520;DHT22;17300;50.374;8.006;2022-07-29T06:08:49;23.20;56.60
30520;DHT22;17300;50.374;8.006;2022-07-29T06:11:16;23.80;57.60
30520;DHT22;17300;50.374;8.006;2022-07-29T06:13:44;24.60;58.30
30520;DHT22;17300;50.374;8.006;2022-07-29T06:16:11;25.50;57.90
30520;DHT22;17300;50.374;8.006;2022-07-29T06:18:37;26.30;55.80
30520;DHT22;17300;50.374;8.006;2022-07-29T06:21:07;26.90;53.60
30520;DHT22;17300;50.374;8.006;2022-07-29T06:23:35;27.40;52.20
30520;DHT22;17300;50.374;8.006;2022-07-29T06:26:08;28.00;51.70
30520;DHT22;17300;50.374;8.006;2022-07-29T06:28:44;28.50;49.40
30520;DHT22;17300;50.374;8.006;2022-07-29T06:31:11;29.00;48.80
30520;DHT22;17300;50.374;8.006;2022-07-29T06:33:38;29.70;50.50
30520;DHT22;17300;50.374;8.006;2022-07-29T06:36:05;30.50;50.30
30520;DHT22;17300;50.374;8.006;2022-07-29T06:38:33;31.50;50.00
30520;DHT22;17300;50.374;8.006;2022-07-29T06:41:00;32.50;49.20
30520;DHT22;17300;50.374;8.006;2022-07-29T06:43:29;33.50;46.80
30520;DHT22;17300;50.374;8.006;2022-07-29T06:46:00;34.40;44.30
30520;DHT22;17300;50.374;8.006;2022-07-29T06:48:27;35.20;42.00
30520;DHT22;17300;50.374;8.006;2022-07-29T06:50:54;35.80;40.90
30520;DHT22;17300;50.374;8.006;2022-07-29T06:53:21;36.40;39.90
30520;DHT22;17300;50.374;8.006;2022-07-29T06:55:48;37.10;39.20
30520;DHT22;17300;50.374;8.006;2022-07-29T06:58:14;37.70;38.40
30520;DHT22;17300;50.374;8.006;2022-07-29T07:00:43;38.30;37.10
30520;DHT22;17300;50.374;8.006;2022-07-29T07:03:11;38.90;35.30
30520;DHT22;17300;50.374;8.006;2022-07-29T07:05:38;39.30;33.90
30520;DHT22;17300;50.374;8.006;2022-07-29T07:08:05;39.60;33.10
30520;DHT22;17300;50.374;8.006;2022-07-29T07:10:33;39.60;31.80
30520;DHT22;17300;50.374;8.006;2022-07-29T07:13:01;39.70;31.30
30520;DHT22;17300;50.374;8.006;2022-07-29T07:15:28;39.80;31.00
30520;DHT22;17300;50.374;8.006;2022-07-29T07:17:55;39.90;30.30
30520;DHT22;17300;50.374;8.006;2022-07-29T07:20:24;40.10;30.40
30520;DHT22;17300;50.374;8.006;2022-07-29T07:22:51;40.30;30.00
30520;DHT22;17300;50.374;8.006;2022-07-29T07:25:18;40.70;30.50
30520;DHT22;17300;50.374;8.006;2022-07-29T07:27:45;41.10;30.40
30520;DHT22;17300;50.374;8.006;2022-07-29T07:30:12;41.70;29.80
30520;DHT22;17300;50.374;8.006;2022-07-29T07:32:39;42.20;29.20
30520;DHT22;17300;50.374;8.006;2022-07-29T07:35:08;42.70;28.90
30520;DHT22;17300;50.374;8.006;2022-07-29T07:37:36;43.10;27.90
30520;DHT22;17300;50.374;8.006;2022-07-29T07:40:04;43.30;26.90
30520;DHT22;17300;50.374;8.006;2022-07-29T07:42:31;43.30;26.20
30520;DHT22;17300;50.374;8.006;2022-07-29T07:44:58;43.10;25.60
30520;DHT22;17300;50.374;8.006;2022-07-29T07:47:25;42.80;25.30
30520;DHT22;17300;50.374;8.006;2022-07-29T07:49:52;42.50;25.20
30520;DHT22;17300;50.374;8.006;2022-07-29T07:52:20;42.00;25.20
30520;DHT22;17300;50.374;8.006;2022-07-29T07:54:48;41.50;25.10
30520;DHT22;17300;50.374;8.006;2022-07-29T07:57:16;40.90;24.90
30520;DHT22;17300;50.374;8.006;2022-07-29T07:59:43;40.40;25.30
30520;DHT22;17300;50.374;8.006;2022-07-29T08:02:09;39.90;25.70
30520;DHT22;17300;50.374;8.006;2022-07-29T08:04:36;39.60;26.00
30520;DHT22;17300;50.374;8.006;2022-07-29T08:07:06;39.20;26.20
30520;DHT22;17300;50.374;8.006;2022-07-29T08:09:33;38.90;26.40
30520;DHT22;17300;50.374;8.006;2022-07-29T08:12:02;38.60;26.40
30520;DHT22;17300;50.374;8.006;2022-07-29T08:14:31;38.20;26.20
30520;DHT22;17300;50.374;8.006;2022-07-29T08:16:58;37.80;26.20
30520;DHT22;17300;50.374;8.006;2022-07-29T08:19:25;37.40;26.30
30520;DHT22;17300;50.374;8.006;2022-07-29T08:21:52;37.00;26.40
30520;DHT22;17300;50.374;8.006;2022-07-29T08:24:19;36.60;26.60
30520;DHT22;17300;50.374;8.006;2022-07-29T08:27:06;36.20;26.60
30520;DHT22;17300;50.374;8.006;2022-07-29T08:29:33;35.80;26.60
30520;DHT22;17300;50.374;8.006;2022-07-29T08:32:00;35.50;26.80
30520;DHT22;17300;50.374;8.006;2022-07-29T08:34:27;35.20;27.20
30520;DHT22;17300;50.374;8.006;2022-07-29T08:36:54;34.90;27.50
30520;DHT22;17300;50.374;8.006;2022-07-29T08:39:21;34.80;27.50
30520;DHT22;17300;50.374;8.006;2022-07-29T08:41:47;34.70;28.00
30520;DHT22;17300;50.374;8.006;2022-07-29T08:44:17;34.70;28.30
30520;DHT22;17300;50.374;8.006;2022-07-29T08:46:44;34.80;28.60
30520;DHT22;17300;50.374;8.006;2022-07-29T08:49:11;35.00;28.90
30520;DHT22;17300;50.374;8.006;2022-07-29T08:51:40;35.30;29.00
30520;DHT22;17300;50.374;8.006;2022-07-29T08:54:08;35.80;29.30
30520;DHT22;17300;50.374;8.006;2022-07-29T08:56:36;36.40;29.30
30520;DHT22;17300;50.374;8.006;2022-07-29T08:59:04;37.00;29.40
30520;DHT22;17300;50.374;8.006;2022-07-29T09:01:33;37.80;28.90
30520;DHT22;17300;50.374;8.006;2022-07-29T09:04:01;38.50;28.60
30520;DHT22;17300;50.374;8.006;2022-07-29T09:06:31;39.20;28.60
30520;DHT22;17300;50.374;8.006;2022-07-29T09:08:59;40.20;28.40
30520;DHT22;17300;50.374;8.006;2022-07-29T09:11:26;41.00;27.60
30520;DHT22;17300;50.374;8.006;2022-07-29T09:13:53;41.80;26.60
30520;DHT22;17300;50.374;8.006;2022-07-29T09:16:20;42.30;25.80
30520;DHT22;17300;50.374;8.006;2022-07-29T09:18:48;42.70;25.20
30520;DHT22;17300;50.374;8.006;2022-07-29T09:21:16;43.10;24.90
30520;DHT22;17300;50.374;8.006;2022-07-29T09:24:04;43.40;24.60
30520;DHT22;17300;50.374;8.006;2022-07-29T09:26:33;43.90;24.80
30520;DHT22;17300;50.374;8.006;2022-07-29T09:29:08;44.40;24.50
30520;DHT22;17300;50.374;8.006;2022-07-29T09:31:36;45.10;23.70
30520;DHT22;17300;50.374;8.006;2022-07-29T09:34:05;45.60;23.60
30520;DHT22;17300;50.374;8.006;2022-07-29T09:36:38;46.20;23.10
30520;DHT22;17300;50.374;8.006;2022-07-29T09:39:06;46.50;22.40
30520;DHT22;17300;50.374;8.006;2022-07-29T09:41:47;46.70;22.50
30520;DHT22;17300;50.374;8.006;2022-07-29T09:44:15;47.00;22.30
30520;DHT22;17300;50.374;8.006;2022-07-29T09:46:53;47.30;22.10
30520;DHT22;17300;50.374;8.006;2022-07-29T09:49:21;47.40;21.40
30520;DHT22;17300;50.374;8.006;2022-07-29T09:51:59;47.50;21.10
30520;DHT22;17300;50.374;8.006;2022-07-29T09:54:27;47.60;21.20
30520;DHT22;17300;50.374;8.006;2022-07-29T09:56:55;47.70;21.30
30520;DHT22;17300;50.374;8.006;2022-07-29T09:59:22;47.70;20.70
30520;DHT22;17300;50.374;8.006;2022-07-29T10:01:51;47.70;20.70
30520;DHT22;17300;50.374;8.006;2022-07-29T10:04:20;47.90;20.80
30520;DHT22;17300;50.374;8.006;2022-07-29T10:06:58;48.10;20.70
30520;DHT22;17300;50.374;8.006;2022-07-29T10:09:25;48.40;20.40
30520;DHT22;17300;50.374;8.006;2022-07-29T10:12:07;48.60;20.40
30520;DHT22;17300;50.374;8.006;2022-07-29T10:14:36;48.90;20.20
30520;DHT22;17300;50.374;8.006;2022-07-29T10:17:04;49.00;20.00
30520;DHT22;17300;50.374;8.006;2022-07-29T10:19:34;49.10;19.80
30520;DHT22;17300;50.374;8.006;2022-07-29T10:22:02;49.10;19.40
30520;DHT22;17300;50.374;8.006;2022-07-29T10:24:31;49.00;19.30
30520;DHT22;17300;50.374;8.006;2022-07-29T10:26:59;48.70;19.10
30520;DHT22;17300;50.374;8.006;2022-07-29T10:29:27;48.30;19.10
30520;DHT22;17300;50.374;8.006;2022-07-29T10:32:10;47.90;19.30
30520;DHT22;17300;50.374;8.006;2022-07-29T10:35:01;47.50;19.50
30520;DHT22;17300;50.374;8.006;2022-07-29T10:37:40;47.30;20.10
30520;DHT22;17300;50.374;8.006;2022-07-29T10:40:22;47.40;20.30
30520;DHT22;17300;50.374;8.006;2022-07-29T10:43:18;47.50;20.30
30520;DHT22;17300;50.374;8.006;2022-07-29T10:45:46;47.50;20.00
30520;DHT22;17300;50.374;8.006;2022-07-29T10:48:14;47.40;20.00
30520;DHT22;17300;50.374;8.006;2022-07-29T10:50:56;47.50;19.90
30520;DHT22;17300;50.374;8.006;2022-07-29T10:53:24;47.20;19.70
30520;DHT22;17300;50.374;8.006;2022-07-29T10:55:57;47.10;19.80
30520;DHT22;17300;50.374;8.006;2022-07-29T10:58:24;47.00;20.00
30520;DHT22;17300;50.374;8.006;2022-07-29T11:00:53;46.80;19.50
30520;DHT22;17300;50.374;8.006;2022-07-29T11:03:43;46.50;19.60
30520;DHT22;17300;50.374;8.006;2022-07-29T11:06:12;46.10;19.70
30520;DHT22;17300;50.374;8.006;2022-07-29T11:08:39;45.70;19.50
30520;DHT22;17300;50.374;8.006;2022-07-29T11:11:36;45.40;19.70
30520;DHT22;17300;50.374;8.006;2022-07-29T11:14:06;45.10;20.60
30520;DHT22;17300;50.374;8.006;2022-07-29T11:17:02;45.10;20.50
30520;DHT22;17300;50.374;8.006;2022-07-29T11:19:29;45.10;20.80
30520;DHT22;17300;50.374;8.006;2022-07-29T11:21:58;45.30;21.20
30520;DHT22;17300;50.374;8.006;2022-07-29T11:24:26;45.40;20.60
30520;DHT22;17300;50.374;8.006;2022-07-29T11:27:09;45.60;20.50
30520;DHT22;17300;50.374;8.006;2022-07-29T11:29:39;45.70;20.50
30520;DHT22;17300;50.374;8.006;2022-07-29T11:32:09;45.80;20.50
30520;DHT22;17300;50.374;8.006;2022-07-29T11:34:36;45.90;20.10
30520;DHT22;17300;50.374;8.006;2022-07-29T11:37:21;45.90;20.00
30520;DHT22;17300;50.374;8.006;2022-07-29T11:42:48;45.50;20.50
30520;DHT22;17300;50.374;8.006;2022-07-29T11:45:21;45.30;19.80
30520;DHT22;17300;50.374;8.006;2022-07-29T11:47:51;45.00;19.80
30520;DHT22;17300;50.374;8.006;2022-07-29T11:50:30;44.70;19.90
30520;DHT22;17300;50.374;8.006;2022-07-29T11:52:59;44.30;20.20
30520;DHT22;17300;50.374;8.006;2022-07-29T11:55:26;44.00;20.20
30520;DHT22;17300;50.374;8.006;2022-07-29T11:57:55;43.80;20.30
30520;DHT22;17300;50.374;8.006;2022-07-29T12:00:25;43.40;20.60
30520;DHT22;17300;50.374;8.006;2022-07-29T12:02:53;43.10;20.60
30520;DHT22;17300;50.374;8.006;2022-07-29T12:05:20;42.80;20.80
30520;DHT22;17300;50.374;8.006;2022-07-29T12:07:47;42.50;21.00
30520;DHT22;17300;50.374;8.006;2022-07-29T12:10:16;42.20;21.10
30520;DHT22;17300;50.374;8.006;2022-07-29T12:12:42;41.90;21.40
30520;DHT22;17300;50.374;8.006;2022-07-29T12:15:18;41.60;21.60
30520;DHT22;17300;50.374;8.006;2022-07-29T12:17:46;41.20;21.80
30520;DHT22;17300;50.374;8.006;2022-07-29T12:20:22;41.00;22.00
30520;DHT22;17300;50.374;8.006;2022-07-29T12:22:49;40.60;22.30
30520;DHT22;17300;50.374;8.006;2022-07-29T12:25:17;40.40;22.60
30520;DHT22;17300;50.374;8.006;2022-07-29T12:27:44;40.30;22.80
30520;DHT22;17300;50.374;8.006;2022-07-29T12:30:13;40.10;22.80
30520;DHT22;17300;50.374;8.006;2022-07-29T12:32:42;40.10;23.00
30520;DHT22;17300;50.374;8.006;2022-07-29T12:35:11;40.00;23.10
30520;DHT22;17300;50.374;8.006;2022-07-29T12:37:40;39.90;23.10
30520;DHT22;17300;50.374;8.006;2022-07-29T12:40:08;39.70;23.10
30520;DHT22;17300;50.374;8.006;2022-07-29T12:42:37;39.60;23.10
30520;DHT22;17300;50.374;8.006;2022-07-29T12:45:05;39.40;23.10
30520;DHT22;17300;50.374;8.006;2022-07-29T12:47:33;39.30;23.40
30520;DHT22;17300;50.374;8.006;2022-07-29T12:50:16;39.10;23.50
30520;DHT22;17300;50.374;8.006;2022-07-29T12:52:45;38.90;23.80
30520;DHT22;17300;50.374;8.006;2022-07-29T12:55:12;38.70;24.00
30520;DHT22;17300;50.374;8.006;2022-07-29T12:57:47;38.60;24.20
30520;DHT22;17300;50.374;8.006;2022-07-29T13:00:16;38.40;24.30
30520;DHT22;17300;50.374;8.006;2022-07-29T13:02:43;38.30;24.30
30520;DHT22;17300;50.374;8.006;2022-07-29T13:05:11;38.20;24.60
30520;DHT22;17300;50.374;8.006;2022-07-29T13:07:38;38.10;24.60
30520;DHT22;17300;50.374;8.006;2022-07-29T13:10:15;38.00;24.50
30520;DHT22;17300;50.374;8.006;2022-07-29T13:13:04;38.00;24.90
30520;DHT22;17300;50.374;8.006;2022-07-29T13:15:31;37.90;25.00
30520;DHT22;17300;50.374;8.006;2022-07-29T13:17:58;37.80;25.10
30520;DHT22;17300;50.374;8.006;2022-07-29T13:20:27;37.80;25.10
30520;DHT22;17300;50.374;8.006;2022-07-29T13:22:55;37.80;25.50
30520;DHT22;17300;50.374;8.006;2022-07-29T13:25:26;37.70;25.30
30520;DHT22;17300;50.374;8.006;2022-07-29T13:27:54;37.70;25.30
30520;DHT22;17300;50.374;8.006;2022-07-29T13:30:22;37.70;25.60
30520;DHT22;17300;50.374;8.006;2022-07-29T13:32:50;37.50;25.60
30520;DHT22;17300;50.374;8.006;2022-07-29T13:35:18;37.50;25.60
30520;DHT22;17300;50.374;8.006;2022-07-29T13:37:45;37.40;25.70
30520;DHT22;17300;50.374;8.006;2022-07-29T13:40:12;37.30;25.60
30520;DHT22;17300;50.374;8.006;2022-07-29T13:42:39;37.30;25.60
30520;DHT22;17300;50.374;8.006;2022-07-29T13:45:08;37.40;25.60
30520;DHT22;17300;50.374;8.006;2022-07-29T13:47:37;37.30;25.60
30520;DHT22;17300;50.374;8.006;2022-07-29T13:50:06;37.40;25.60
30520;DHT22;17300;50.374;8.006;2022-07-29T13:52:35;37.50;25.30
30520;DHT22;17300;50.374;8.006;2022-07-29T13:55:04;37.30;25.50
30520;DHT22;17300;50.374;8.006;2022-07-29T13:57:30;37.20;24.60
30520;DHT22;17300;50.374;8.006;2022-07-29T13:59:57;36.90;24.40
30520;DHT22;17300;50.374;8.006;2022-07-29T14:02:24;36.60;24.50
30520;DHT22;17300;50.374;8.006;2022-07-29T14:04:52;36.20;24.60
30520;DHT22;17300;50.374;8.006;2022-07-29T14:07:19;35.70;24.80
30520;DHT22;17300;50.374;8.006;2022-07-29T14:09:46;35.30;25.10
30520;DHT22;17300;50.374;8.006;2022-07-29T14:12:13;34.80;25.40
30520;DHT22;17300;50.374;8.006;2022-07-29T14:14:39;34.40;25.70
30520;DHT22;17300;50.374;8.006;2022-07-29T14:17:07;33.90;26.00
30520;DHT22;17300;50.374;8.006;2022-07-29T14:19:34;33.50;26.30
30520;DHT22;17300;50.374;8.006;2022-07-29T14:22:05;33.20;26.70
30520;DHT22;17300;50.374;8.006;2022-07-29T14:24:32;32.80;27.10
30520;DHT22;17300;50.374;8.006;2022-07-29T14:26:59;32.60;27.50
30520;DHT22;17300;50.374;8.006;2022-07-29T14:29:26;32.40;27.80
30520;DHT22;17300;50.374;8.006;2022-07-29T14:31:53;32.20;28.00
30520;DHT22;17300;50.374;8.006;2022-07-29T14:34:19;32.00;28.20
30520;DHT22;17300;50.374;8.006;2022-07-29T14:36:46;31.90;28.50
30520;DHT22;17300;50.374;8.006;2022-07-29T14:39:16;31.70;28.60
30520;DHT22;17300;50.374;8.006;2022-07-29T14:41:44;31.70;29.00
30520;DHT22;17300;50.374;8.006;2022-07-29T14:44:10;31.60;29.20
30520;DHT22;17300;50.374;8.006;2022-07-29T14:46:37;31.60;29.40
30520;DHT22;17300;50.374;8.006;2022-07-29T14:49:04;31.60;29.60
30520;DHT22;17300;50.374;8.006;2022-07-29T14:51:32;31.60;29.80
30520;DHT22;17300;50.374;8.006;2022-07-29T14:53:59;31.70;30.00
30520;DHT22;17300;50.374;8.006;2022-07-29T14:56:27;31.70;30.00
30520;DHT22;17300;50.374;8.006;2022-07-29T14:58:55;31.70;30.00
30520;DHT22;17300;50.374;8.006;2022-07-29T15:01:22;31.80;30.00
30520;DHT22;17300;50.374;8.006;2022-07-29T15:03:51;31.80;30.10
30520;DHT22;17300;50.374;8.006;2022-07-29T15:06:17;31.80;30.00
30520;DHT22;17300;50.374;8.006;2022-07-29T15:08:44;31.80;30.00
30520;DHT22;17300;50.374;8.006;2022-07-29T15:11:11;31.80;30.00
30520;DHT22;17300;50.374;8.006;2022-07-29T15:13:39;31.80;30.00
30520;DHT22;17300;50.374;8.006;2022-07-29T15:16:07;31.80;30.00
30520;DHT22;17300;50.374;8.006;2022-07-29T15:18:34;31.80;30.00
30520;DHT22;17300;50.374;8.006;2022-07-29T15:21:03;31.70;30.00
30520;DHT22;17300;50.374;8.006;2022-07-29T15:23:32;31.70;30.00
30520;DHT22;17300;50.374;8.006;2022-07-29T15:26:00;31.60;30.00
30520;DHT22;17300;50.374;8.006;2022-07-29T15:28:27;31.60;30.00
30520;DHT22;17300;50.374;8.006;2022-07-29T15:30:55;31.50;30.00
30520;DHT22;17300;50.374;8.006;2022-07-29T15:33:22;31.50;30.00
30520;DHT22;17300;50.374;8.006;2022-07-29T15:35:49;31.50;30.10
30520;DHT22;17300;50.374;8.006;2022-07-29T15:38:16;31.50;30.40
30520;DHT22;17300;50.374;8.006;2022-07-29T15:40:43;31.50;30.40
30520;DHT22;17300;50.374;8.006;2022-07-29T15:43:12;31.60;30.40
30520;DHT22;17300;50.374;8.006;2022-07-29T15:45:41;31.70;30.40